Flight Track Log - Related Links

Times and Time Zones

All times are in EDT time to prevent confusion due to time zone crossing. See the FLG3432 flight status page for this flight to view local times or setup timezone preferences in your user account.

Time Position Orientation Groundspeed Altitude Reporting Facility
EDT Latitude Longitude Course Direction KTS MPH feet Rate Location/Type
Mon 12:51:12 PM 42.1994 -83.3608 213° Southwest 153 176 1,400  Level Cleveland Center
Mon 12:52:37 PM 42.1378 -83.4142 213° Southwest 224 258 3,900 1,783 Climbing Cleveland Center
Mon 12:53:30 PM 42.0911 -83.4458 207° Southwest 261 300 5,500 2,283 Climbing Cleveland Center
Mon 12:54:30 PM 42.0208 -83.5042 212° Southwest 274 315 8,200 2,628 Climbing Cleveland Center
Mon 12:55:31 PM 41.9525 -83.5653 214° Southwest 284 327 10,800 2,150 Climbing Cleveland Center
Mon 12:56:30 PM 41.8714 -83.6311 211° Southwest 313 360 12,500 1,966 Climbing Cleveland Center
Mon 12:57:30 PM 41.7883 -83.7025 213° Southwest 342 394 14,700 2,150 Climbing Cleveland Center
Mon 12:58:30 PM 41.7008 -83.7761 212° Southwest 361 415 16,800 1,900 Climbing Cleveland Center
Mon 12:59:30 PM 41.6092 -83.8464 210° Southwest 379 436 18,500 1,600 Climbing Cleveland Center
Mon 01:00:30 PM 41.5172 -83.9222 212° Southwest 390 449 20,000 750 Climbing Cleveland Center
Mon 01:01:30 PM 41.4189 -84.0003 211° Southwest 396 456 20,000  Level Cleveland Center
Mon 01:02:30 PM 41.3356 -84.0678 211° Southwest 409 471 20,000  Level Cleveland Center
Mon 01:03:30 PM 41.2453 -84.1597 217° Southwest 409 471 20,000  Level Cleveland Center
Mon 01:04:36 PM 41.2003 -84.3256 250° West 398 458 20,000  Level Chicago Center
Mon 01:05:38 PM 41.1650 -84.4639 251° West 396 456 20,000  Level Chicago Center
Mon 01:06:40 PM 41.1286 -84.6050 251° West 400 460 20,000  Level Chicago Center
Mon 01:07:42 PM 41.0931 -84.7464 252° West 404 465 20,000  Level Chicago Center
Mon 01:08:44 PM 41.0564 -84.8883 251° West 405 466 20,000  Level Chicago Center
Mon 01:09:46 PM 41.0189 -85.0314 251° West 408 470 20,000  Level Chicago Center
Mon 01:10:48 PM 40.9525 -85.1453 232° Southwest 417 480 20,000  Level Chicago Center
Mon 01:11:51 PM 40.8197 -85.1944 196° South 415 478 20,000  Level Chicago Center
Mon 01:12:53 PM 40.7089 -85.2339 195° South 412 474 20,000  Level Chicago Center
Mon 01:13:55 PM 40.5978 -85.2747 196° South 410 472 20,000 -435 Level Chicago Center
Mon 01:14:57 PM 40.5050 -85.3572 214° Southwest 406 467 19,100 -1,597 Descending Chicago Center
Mon 01:15:59 PM 40.4156 -85.4364 214° Southwest 394 453 16,700 -2,371 Descending Chicago Center
Mon 01:17:01 PM 40.3281 -85.5128 214° Southwest 381 438 14,200 -2,516 Descending Indianapolis Center
Mon 01:18:03 PM 40.2297 -85.6006 214° Southwest 358 412 11,500 -1,548 Descending Indianapolis Center
Mon 01:19:05 PM 40.1642 -85.6744 221° Southwest 313 360 11,000 -871 Descending Indianapolis Center
Mon 01:20:07 PM 40.1103 -85.7500 227° Southwest 286 329 9,700 -1,452 Descending Indianapolis Center
Mon 01:21:09 PM 40.0581 -85.8253 228° Southwest 283 326 8,000 -1,694 Descending Indianapolis Center
Mon 01:22:11 PM 40.0058 -85.8989 227° Southwest 280 322 6,200 -1,463 Descending Indianapolis Center
Mon 01:23:12 PM 39.9542 -85.9703 227° Southwest 276 318 5,000 -683 Descending Indianapolis Center
Mon 01:24:14 PM 39.8931 -86.0553 227° Southwest 271 312 4,800 -919 Descending Indianapolis Center
Mon 01:25:16 PM 39.8422 -86.1233 226° Southwest 267 307 3,100 -871 Descending Indianapolis Center
Mon 01:26:18 PM 39.7944 -86.1847 225° Southwest 255 293 3,000 -484 Descending Indianapolis Center
Mon 01:27:20 PM 39.7619 -86.2253 224° Southwest 197 227 2,100 -871 Descending Indianapolis Center
Mon 01:28:22 PM 39.7319 -86.2631 224° Southwest 164 189 1,200 -585 Descending Indianapolis Center
Mon 01:29:23 PM 39.7044 -86.2986 225° Southwest 157 181 900 -295 Descending Indianapolis Center

Login

Don't have an account? Register now (free) for customized features, flight alerts, and more!